Latest Coastal Weather Observations for Cape Nelson

IDV60701

Issued at 2:41 pm EDT Tuesday 23 December 2014 (issued every 10 minutes, with the page automatically refreshed every 10 minutes)

About coastal observations | Map of coastal stations | Coastal observations for VIC | Marine services | Other Formats
Station Details ID: 090184 Name: CAPE NELSON LIGHTHOUSE Lat: -38.43 Lon: 141.54 Height: 45.4 m
Data from the previous 72 hours. | See also: Recent months at Cape Nelson
Date/Time
EDT
Temp

°C
Wind Pressure Rain
since 9am
mm
Weather Cloud Vis
km
Sea
Height
m
Swell
Dir
 
Speed
knots
Gust
knots
hPa Trend Height
m
Period
s
Dir
23/02:30pm 16.6 NE 8 14 1012.7 - 0.0 - - - - - - -
23/02:00pm 17.3 NE 8 13 1012.6 - 0.0 - - - - - - -
23/01:30pm 17.5 NE 9 14 1012.3 - 0.0 - - - - - - -
23/01:00pm 16.4 NE 10 15 1012.0 - 0.0 - - - - - - -
23/12:30pm 16.0 NNE 7 10 1011.8 - 0.0 - - - - - - -
23/12:00pm 16.3 NE 7 13 1011.4 - 0.0 - - - - - - -
23/11:30am 16.5 NE 7 11 1011.1 - 0.0 - - - - - - -
23/11:00am 15.6 ESE 7 11 1010.7 - 0.0 - - - - - - -
23/10:30am 15.7 SSE 8 12 1010.3 - 0.0 - - - - - - -
23/10:00am 15.6 NE 8 13 1009.9 - 0.0 - - - - - - -
23/09:30am 15.8 NE 7 13 1009.6 - 0.0 - - - - - - -
23/09:00am 15.7 NE 9 13 1009.4 - 1.6 - - - - - - -
23/08:30am 15.8 NW 9 15 1009.1 - 1.6 - - - - - - -
23/08:00am 15.7 W 15 20 1008.9 - 1.6 - - - - - - -
23/07:30am 16.0 W 10 16 1008.5 - 1.6 - - - - - - -
23/07:00am 16.1 WNW 13 18 1008.2 - 1.6 - - - - - - -
23/06:30am 16.2 WNW 11 19 1007.9 - 1.6 - - - - - - -
23/06:00am 16.2 WNW 8 11 1007.7 - 1.6 Recent precip. - - - - - -
23/05:30am 16.6 WNW 7 10 1007.5 - 1.6 - - - - - - -
23/05:00am 16.7 WNW 8 11 1007.4 - 1.2 - - - - - - -
23/04:30am 17.0 WNW 9 12 1007.2 - 1.2 - - - - - - -
23/04:00am 17.1 NNW 9 12 1007.0 - 1.0 - - - - - - -
23/03:30am 16.8 NNW 9 14 1006.8 - 1.0 - - - - - - -
23/03:00am 16.6 NNW 8 10 1006.8 - 1.0 - - - - - - -
23/02:30am 16.6 N 7 9 1007.0 - 1.0 - - - - - - -
23/02:00am 16.6 N 7 9 1007.2 - 1.0 - - - - - - -
23/01:30am 16.7 NE 6 8 1007.3 - 1.0 - - - - - - -
23/01:00am 16.6 NW 2 5 1007.2 - 0.6 - - - - - - -
23/12:30am 16.4 CALM 0 0 1007.6 - 0.2 - - - - - - -
23/12:00am 16.4 CALM 0 0 1008.0 - 0.2 Recent precip. - - - - - -
 
Date/Time
EDT
Temp

°C
Wind Pressure Rain
since 9am
mm
Weather Cloud Vis
km
Sea
Height
m
Swell
Dir
 
Speed
knots
Gust
knots
hPa Trend Height
m
Period
s
Dir
22/11:30pm 16.5 CALM 0 0 1008.2 - 0.0 - - - - - - -
22/11:00pm 16.8 CALM 0 0 1007.9 - 0.0 - - - - - - -
22/10:30pm 16.6 NE 2 3 1007.8 - 0.0 - - - - - - -
22/10:00pm 16.8 NE 3 5 1007.9 - 0.0 - - - - - - -
22/09:30pm 16.9 ENE 6 9 1008.0 - 0.0 - - - - - - -
22/09:00pm 16.9 E 6 8 1008.0 - 0.0 - - - - - - -
22/08:30pm 16.9 E 6 7 1008.1 - 0.0 - - - - - - -
22/08:00pm 17.0 ENE 6 8 1008.0 - 0.0 - - - - - - -
22/07:30pm 17.0 E 8 11 1007.6 - 0.0 - - - - - - -
22/07:00pm 16.9 E 8 15 1007.0 - 0.0 - - - - - - -
22/06:30pm 17.1 SE 6 8 1007.0 - 0.0 - - - - - - -
22/06:00pm 17.3 ESE 8 10 1007.1 - 0.0 - - - - - - -
22/05:30pm 17.7 SSW 5 8 1007.7 - 0.0 - - - - - - -
22/05:00pm 18.3 SE 5 7 1007.5 - 0.0 - - - - - - -
22/04:30pm 17.7 E 14 19 1006.8 - 0.0 - - - - - - -
22/04:00pm 17.4 E 14 17 1007.0 - 0.0 - - - - - - -
22/03:30pm 17.3 E 15 21 1007.7 - 0.0 - - - - - - -
22/03:00pm 17.7 E 12 17 1008.0 - 0.0 - - - - - - -
22/02:30pm 17.8 ESE 9 16 1008.4 - 0.0 - - - - - - -
22/02:00pm 18.0 SSE 13 21 1008.3 - 0.0 - - - - - - -
22/01:30pm 20.9 S 5 9 1009.9 - 0.0 - - - - - - -
22/01:00pm 19.5 NW 6 10 1010.0 - 0.0 - - - - - - -
22/12:30pm 18.3 ENE 17 21 1008.6 - 0.0 - - - - - - -
22/12:00pm 18.0 ENE 17 24 1009.1 - 0.0 - - - - - - -
22/11:30am 17.1 ENE 17 21 1009.7 - 0.0 - - - - - - -
22/11:00am 16.6 ENE 18 24 1009.7 - 0.0 - - - - - - -
22/10:30am 16.7 ENE 20 26 1009.9 - 0.0 - - - - - - -
22/10:00am 16.7 ENE 19 28 1010.2 - 0.0 - - - - - - -
22/09:49am 16.6 ENE 19 30 1010.4 - 0.0 - - - - - - -
22/09:30am 16.2 E 19 28 1010.5 - 0.0 - - - - - - -
22/09:22am 16.3 E 22 32 1010.5 - 0.0 - - - - - - -
22/09:00am 16.2 E 25 31 1009.8 - 0.0 - - - - - - -
22/08:30am 16.2 ESE 18 26 1010.4 - 0.0 - - - - - - -
22/08:00am 16.3 ESE 13 23 1011.4 - 0.0 - - - - - - -
22/07:59am 16.3 ESE 13 23 1011.5 - 0.0 - - - - - - -
22/07:30am 16.4 E 11 14 1013.5 - 0.0 - - - - - - -
22/07:00am 16.2 E 16 20 1012.2 - 0.0 - - - - - - -
22/06:30am 16.0 E 16 21 1011.8 - 0.0 - - - - - - -
22/06:00am 15.9 E 13 17 1012.1 - 0.0 - - - - - - -
22/05:30am 15.9 E 12 15 1012.6 - 0.0 - - - - - - -
22/05:00am 15.8 E 14 23 1012.1 - 0.0 - - - - - - -
22/04:30am 15.7 ENE 17 25 1011.5 - 0.0 - - - - - - -
22/04:00am 15.6 ENE 19 26 1011.2 - 0.0 - - - - - - -
22/03:30am 15.5 E 18 23 1011.7 - 0.0 - - - - - - -
22/03:00am 15.5 E 18 22 1011.9 - 0.0 - - - - - - -
22/02:30am 15.4 ESE 12 17 1012.8 - 0.0 - - - - - - -
22/02:00am 15.4 ESE 14 18 1013.6 - 0.0 - - - - - - -
22/01:30am 15.4 ESE 13 17 1014.0 - 0.0 - - - - - - -
22/01:00am 15.5 ESE 12 17 1014.5 - 0.0 - - - - - - -
22/12:30am 15.4 ESE 13 16 1014.4 - 0.0 - - - - - - -
22/12:00am 15.5 ESE 11 15 1014.8 - 0.0 - - - - - - -
 
Date/Time
EDT
Temp

°C
Wind Pressure Rain
since 9am
mm
Weather Cloud Vis
km
Sea
Height
m
Swell
Dir
 
Speed
knots
Gust
knots
hPa Trend Height
m
Period
s
Dir
21/11:30pm 15.4 SE 11 17 1015.4 - 0.0 - - - - - - -
21/11:00pm 15.4 ESE 9 16 1015.5 - 0.0 - - - - - - -
21/10:30pm 15.4 ESE 10 14 1015.2 - 0.0 - - - - - - -
21/10:00pm 15.3 ESE 11 16 1015.2 - 0.0 - - - - - - -
21/09:30pm 15.5 SE 11 17 1015.2 - 0.0 - - - - - - -
21/09:00pm 15.6 SE 11 15 1014.9 - 0.0 - - - - - - -
21/08:30pm 15.9 SE 13 17 1014.6 - 0.0 - - - - - - -
21/08:00pm 15.9 SE 13 17 1014.4 - 0.0 - - - - - - -
21/07:30pm 16.2 SE 12 16 1014.2 - 0.0 - - - - - - -
21/07:00pm 16.6 SSE 14 17 1014.0 - 0.0 - - - - - - -
21/06:30pm 16.4 S 13 17 1013.8 - 0.0 - - - - - - -
21/06:00pm 16.7 SSE 12 15 1013.8 - 0.0 - - - - - - -
21/05:30pm 17.3 SSE 11 15 1013.7 - 0.0 - - - - - - -
21/05:00pm 18.0 SSE 10 14 1013.7 - 0.0 - - - - - - -
21/04:30pm 18.3 SSE 10 13 1013.8 - 0.0 - - - - - - -
21/04:00pm 18.9 SSE 9 11 1013.9 - 0.0 - - - - - - -
21/03:30pm 18.9 SSE 8 10 1014.0 - 0.0 - - - - - - -
21/03:00pm 19.0 SSE 9 11 1014.1 - 0.0 - - - - - - -
21/02:30pm 19.6 SSE 9 11 1014.2 - 0.0 - - - - - - -
21/02:00pm 19.4 SSE 9 11 1014.6 - 0.0 - - - - - - -
21/01:30pm 19.3 SSE 9 12 1014.7 - 0.0 - - - - - - -
21/01:00pm 19.2 SSE 9 12 1014.7 - 0.0 - - - - - - -
21/12:30pm 18.4 SSE 9 13 1015.0 - 0.0 - - - - - - -
21/12:00pm 17.5 S 12 16 1015.3 - 0.0 - - - - - - -
21/11:30am 17.6 S 9 13 1014.9 - 0.0 - - - - - - -
21/11:00am 17.9 SSW 4 5 1014.3 - 0.0 - - - - - - -
21/10:30am 19.0 SE 4 6 1014.1 - 0.0 - - - - - - -
21/10:00am 18.4 SE 5 7 1013.8 - 0.0 - - - - - - -
21/09:30am 19.5 E 6 8 1013.7 - 0.0 - - - - - - -
21/09:00am 18.9 ENE 6 9 1013.8 - 0.0 - - - - - - -
21/08:30am 18.0 NE 8 10 1013.6 - 0.0 - - - - - - -
21/08:00am 16.8 NE 7 11 1013.4 - 0.0 - - - - - - -
21/07:30am 16.0 NE 7 9 1013.3 - 0.0 - - - - - - -
21/07:00am 14.9 NE 7 10 1012.9 - 0.0 - - - - - - -
21/06:30am 14.3 NE 8 11 1012.8 - 0.0 - - - - - - -
21/06:00am 14.4 ENE 12 15 1012.8 - 0.0 - - - - - - -
21/05:30am 14.5 ENE 13 18 1012.5 - 0.0 - - - - - - -
21/05:00am 14.4 ENE 12 17 1012.7 - 0.0 - - - - - - -
21/04:30am 14.0 ENE 9 12 1013.4 - 0.0 - - - - - - -
21/04:00am 13.3 NE 4 9 1014.0 - 0.0 - - - - - - -
21/03:30am 13.8 NE 4 7 1014.0 - 0.0 - - - - - - -
21/03:00am 14.2 NE 9 13 1013.6 - 0.0 - - - - - - -
21/02:30am 14.5 NE 10 13 1013.7 - 0.0 - - - - - - -
21/02:00am 14.7 ENE 11 16 1013.9 - 0.0 - - - - - - -
21/01:30am 14.8 ENE 13 17 1014.5 - 0.0 - - - - - - -
21/01:00am 14.6 ENE 9 13 1015.2 - 0.0 - - - - - - -
21/12:30am 14.3 E 8 11 1016.2 - 0.0 - - - - - - -
21/12:00am 14.3 E 7 10 1016.4 - 0.0 - - - - - - -
 
Date/Time
EDT
Temp

°C
Wind Pressure Rain
since 9am
mm
Weather Cloud Vis
km
Sea
Height
m
Swell
Dir
 
Speed
knots
Gust
knots
hPa Trend Height
m
Period
s
Dir
20/11:30pm 14.5 E 7 9 1016.7 - 0.0 - - - - - - -
20/11:00pm 14.6 E 7 10 1016.9 - 0.0 - - - - - - -
20/10:30pm 14.6 ESE 7 9 1017.2 - 0.0 - - - - - - -
20/10:00pm 14.7 ESE 5 8 1017.2 - 0.0 - - - - - - -
20/09:30pm 14.8 SE 5 7 1017.1 - 0.0 - - - - - - -
20/09:00pm 15.1 SE 5 6 1017.2 - 0.0 - - - - - - -
20/08:30pm 15.9 SSE 6 8 1017.4 - 0.0 - - - - - - -
20/08:00pm 16.4 S 7 8 1017.3 - 0.0 - - - - - - -
20/07:30pm 17.3 S 7 9 1017.0 - 0.0 - - - - - - -
20/07:00pm 17.3 SSW 9 11 1016.9 - 0.0 - - - - - - -
20/06:30pm 17.3 SSW 9 11 1017.0 - 0.0 - - - - - - -
20/06:00pm 17.6 S 7 10 1017.1 - 0.0 - - - - - - -
20/05:30pm 18.7 SSE 5 8 1017.3 - 0.0 - - - - - - -
20/05:00pm 18.8 NE 5 7 1017.5 - 0.0 - - - - - - -
20/04:30pm 19.1 NNE 6 11 1017.7 - 0.0 - - - - - - -
20/04:00pm 19.8 NNE 6 9 1017.9 - 0.0 - - - - - - -
20/03:30pm 19.5 NW 6 10 1018.4 - 0.0 - - - - - - -
20/03:00pm 18.1 WNW 8 11 1018.8 - 0.0 - - - - - - -

Other Formats:

Comma delimited format used in spreadsheet applications
http://www.bom.gov.au/fwo/IDV60701/IDV60701.94826.axf

JavaScript Object Notation format (JSON) in row-major order
http://www.bom.gov.au/fwo/IDV60701/IDV60701.94826.json